Time;durP1;ratioP1;P1;durP2;ratioP2;P2;SDS_P1;SDS_P2;PMS_P1;PMS_P2;Temp;Humidity;BMP_temperature;BMP_pressure;BME280_temperature;BME280_humidity;BME280_pressure;Samples;Min_cycle;Max_cycle;Signal;HPM_P1;HPM_P2
2023/09/22 05:17:44;;;;;;;;;1.00;1.00;;;;;22.15;54.12;99751.66;5111468;27;45418;-72
2023/09/22 05:20:14;;;;;;;;;0.00;0.00;;;;;22.31;54.59;99753.34;5109107;27;45576;-71
2023/09/22 05:22:40;;;;;;;;;2.00;0.00;;;;;22.51;53.79;99749.09;5109276;27;47132;-76
2023/09/22 05:25:06;;;;;;;;;1.00;0.00;;;;;22.74;53.62;99748.19;5120189;27;45760;-69
2023/09/22 05:27:31;;;;;;;;;0.67;0.67;;;;;22.98;53.60;99743.50;5101105;27;46253;-71
2023/09/22 05:29:57;;;;;;;;;0.00;0.00;;;;;23.24;53.01;99744.84;5109952;27;45481;-72
2023/09/22 05:32:22;;;;;;;;;0.00;0.00;;;;;23.49;52.88;99744.50;5103850;27;45612;-72
2023/09/22 05:34:48;;;;;;;;;0.00;0.00;;;;;23.73;52.55;99741.59;5106331;27;45432;-72
2023/09/22 05:37:13;;;;;;;;;0.67;0.00;;;;;23.93;51.76;99739.91;5108406;27;45490;-73
2023/09/22 05:39:39;;;;;;;;;1.00;1.00;;;;;24.17;51.66;99748.69;5111723;27;46761;-73
2023/09/22 05:42:06;;;;;;;;;1.67;1.00;;;;;24.38;51.23;99756.94;5109086;27;45315;-72
2023/09/22 05:44:32;;;;;;;;;2.00;1.00;;;;;24.54;50.87;99753.94;5107300;27;45913;-73
2023/09/22 05:46:58;;;;;;;;;1.00;1.00;;;;;24.73;50.09;99744.22;5103483;27;45561;-72
2023/09/22 05:49:23;;;;;;;;;3.00;1.00;;;;;24.91;49.37;99745.59;5107064;27;45549;-72
2023/09/22 05:51:49;;;;;;;;;1.33;1.33;;;;;25.06;49.09;99752.75;5108122;27;45453;-72
2023/09/22 05:54:14;;;;;;;;;3.00;1.33;;;;;25.17;48.45;99745.91;5108262;27;45693;-72
2023/09/22 05:56:40;;;;;;;;;1.00;1.00;;;;;25.29;49.00;99746.16;5107889;27;47088;-73
2023/09/22 05:59:06;;;;;;;;;1.00;1.00;;;;;25.39;48.70;99750.13;5098621;27;45486;-75
2023/09/22 06:01:36;;;;;;;;;0.00;0.00;;;;;25.51;48.17;99744.94;5109007;27;45485;-74
2023/09/22 06:04:04;;;;;;;;;2.00;0.00;;;;;25.62;48.27;99745.41;5104906;27;45875;-74
2023/09/22 06:06:30;;;;;;;;;0.00;0.00;;;;;25.72;47.43;99739.56;5100391;27;47253;-75
2023/09/22 06:08:55;;;;;;;;;2.00;0.33;;;;;25.82;47.57;99756.31;5105180;27;45378;-76
2023/09/22 06:11:20;;;;;;;;;2.67;2.00;;;;;25.90;47.15;99761.53;5104708;27;45779;-74
2023/09/22 06:13:46;;;;;;;;;5.00;3.67;;;;;25.96;46.80;99757.16;5109256;27;45515;-74
2023/09/22 06:16:11;;;;;;;;;2.33;1.67;;;;;26.01;46.75;99753.81;5108894;27;46366;-74
2023/09/22 06:18:40;;;;;;;;;1.00;1.00;;;;;26.02;46.69;99755.47;5105249;27;45761;-74
2023/09/22 06:21:06;;;;;;;;;0.33;0.33;;;;;26.11;46.78;99753.41;5109883;27;45411;-74
2023/09/22 06:23:31;;;;;;;;;1.67;1.33;;;;;26.14;46.05;99756.53;5109381;27;45425;-74
2023/09/22 06:26:10;;;;;;;;;0.33;0.00;;;;;26.19;46.36;99750.44;5105275;27;46108;-74
2023/09/22 06:28:35;;;;;;;;;2.00;1.00;;;;;26.19;45.50;99745.00;5094934;27;45576;-74
2023/09/22 06:31:03;;;;;;;;;0.00;0.00;;;;;26.21;46.28;99751.09;5092469;27;45783;-74
2023/09/22 06:33:32;;;;;;;;;1.00;1.00;;;;;26.21;45.81;99747.50;5091630;27;45433;-74
2023/09/22 06:36:04;;;;;;;;;1.67;0.00;;;;;26.22;45.85;99746.47;5091345;27;46293;-74
2023/09/22 06:38:33;;;;;;;;;0.33;0.33;;;;;26.25;45.86;99760.53;5095596;27;45434;-74
2023/09/22 06:41:00;;;;;;;;;1.00;0.00;;;;;26.27;45.77;99758.41;5086824;27;45782;-74
2023/09/22 06:43:26;;;;;;;;;0.67;0.00;;;;;26.28;45.62;99757.38;5083296;27;45534;-75
2023/09/22 06:45:53;;;;;;;;;1.00;1.00;;;;;26.33;46.17;99753.19;5089870;27;47118;-74
2023/09/22 06:48:25;;;;;;;;;2.33;1.00;;;;;26.36;46.22;99747.31;5095613;27;46465;-74
2023/09/22 06:50:51;;;;;;;;;1.00;1.00;;;;;26.39;45.22;99761.34;5094413;27;45468;-73
2023/09/22 06:53:21;;;;;;;;;0.00;0.00;;;;;26.40;45.49;99751.31;5094881;27;45455;-74
2023/09/22 06:55:46;;;;;;;;;0.00;0.00;;;;;26.41;45.26;99752.97;5093031;27;45786;-74
2023/09/22 06:58:12;;;;;;;;;0.33;0.33;;;;;26.34;45.21;99741.25;5082683;27;46006;-73
2023/09/22 07:00:37;;;;;;;;;0.67;0.67;;;;;26.38;45.47;99742.50;5077452;27;45683;-73
2023/09/22 07:03:04;;;;;;;;;0.67;0.67;;;;;26.39;45.29;99753.16;5082829;27;45801;-73
2023/09/22 07:05:29;;;;;;;;;3.33;0.00;;;;;26.39;45.01;99755.91;5085150;27;46158;-73
2023/09/22 07:07:55;;;;;;;;;1.67;1.00;;;;;26.40;45.06;99748.56;5070581;27;46129;-73
2023/09/22 07:10:20;;;;;;;;;0.00;0.00;;;;;26.40;45.40;99748.56;5079735;27;45946;-73
2023/09/22 07:12:46;;;;;;;;;0.00;0.00;;;;;26.40;44.86;99749.41;5088788;27;45551;-73
2023/09/22 07:15:11;;;;;;;;;0.67;0.67;;;;;26.41;45.23;99750.25;5095560;27;45393;-73
2023/09/22 07:17:37;;;;;;;;;0.33;0.00;;;;;26.43;44.69;99748.13;5084832;27;45485;-74
2023/09/22 07:20:04;;;;;;;;;2.00;0.67;;;;;26.43;45.12;99740.81;5089317;27;45577;-74
2023/09/22 07:22:33;;;;;;;;;0.00;0.00;;;;;26.46;44.30;99747.72;5078662;27;47208;-73
2023/09/22 07:24:59;;;;;;;;;0.67;0.67;;;;;26.47;44.45;99737.66;5088732;27;45379;-74
2023/09/22 07:27:25;;;;;;;;;0.00;0.00;;;;;26.46;44.64;99733.28;5091607;27;45520;-74
2023/09/22 07:29:51;;;;;;;;;1.00;1.00;;;;;26.47;44.30;99743.09;5086237;27;45665;-74
2023/09/22 07:32:17;;;;;;;;;0.67;0.00;;;;;26.44;44.58;99736.19;5094868;27;45429;-74
2023/09/22 07:34:42;;;;;;;;;1.33;0.00;;;;;26.46;44.03;99738.72;5080159;27;45716;-74
2023/09/22 07:37:11;;;;;;;;;0.00;0.00;;;;;26.47;44.44;99743.09;5090689;27;45507;-74
2023/09/22 07:39:38;;;;;;;;;0.00;0.00;;;;;26.47;43.80;99735.78;5092232;27;45781;-75
2023/09/22 07:42:04;;;;;;;;;0.67;0.67;;;;;26.44;44.32;99731.59;5093062;27;45576;-75
2023/09/22 07:44:29;;;;;;;;;1.67;0.00;;;;;26.46;43.65;99745.00;5089713;27;45380;-74
2023/09/22 07:46:57;;;;;;;;;1.00;0.00;;;;;26.47;43.66;99754.81;5091994;27;45506;-74
2023/09/22 07:49:22;;;;;;;;;0.67;0.67;;;;;26.47;44.09;99752.09;5091562;27;45563;-75
2023/09/22 07:51:47;;;;;;;;;1.00;1.00;;;;;26.47;43.73;99746.66;5091236;27;45736;-75
2023/09/22 07:54:13;;;;;;;;;0.00;0.00;;;;;26.46;43.61;99744.16;5093966;27;46093;-74
2023/09/22 07:56:38;;;;;;;;;1.00;0.00;;;;;26.42;43.92;99738.31;5094493;27;45797;-74
2023/09/22 07:59:04;;;;;;;;;0.00;0.00;;;;;26.43;44.03;99737.25;5092483;27;45775;-74
2023/09/22 08:01:29;;;;;;;;;1.00;1.00;;;;;26.44;43.82;99747.06;5080999;27;45725;-75
2023/09/22 08:03:55;;;;;;;;;0.00;0.00;;;;;26.40;43.16;99737.69;5089702;27;46130;-74
2023/09/22 08:06:20;;;;;;;;;0.00;0.00;;;;;26.39;43.15;99736.84;5093210;27;45613;-74
2023/09/22 08:08:49;;;;;;;;;0.67;0.67;;;;;26.38;43.35;99743.34;5086379;27;45456;-74
2023/09/22 08:11:17;;;;;;;;;0.00;0.00;;;;;26.35;43.87;99741.03;5088084;27;47124;-75
2023/09/22 08:13:43;;;;;;;;;0.33;0.33;;;;;26.35;43.72;99743.75;5089215;27;45450;-73
2023/09/22 08:16:10;;;;;;;;;1.67;0.00;;;;;26.35;43.85;99745.66;5091583;27;45635;-74
2023/09/22 08:18:37;;;;;;;;;0.00;0.00;;;;;26.35;43.16;99740.22;5092054;27;45733;-74
2023/09/22 08:21:04;;;;;;;;;0.00;0.00;;;;;26.35;43.52;99754.63;5092831;27;45555;-73
2023/09/22 08:23:30;;;;;;;;;0.00;0.00;;;;;26.34;43.25;99746.69;5091069;27;46272;-74
2023/09/22 08:25:56;;;;;;;;;0.00;0.00;;;;;26.35;43.40;99759.25;5092354;27;45573;-77
2023/09/22 08:28:23;;;;;;;;;0.00;0.00;;;;;26.25;43.05;99741.50;5088757;27;45817;-75
2023/09/22 08:30:48;;;;;;;;;0.00;0.00;;;;;26.36;43.75;99756.31;5088378;27;45474;-75
2023/09/22 08:33:14;;;;;;;;;1.33;0.00;;;;;26.33;43.12;99750.47;5079848;27;45671;-74
2023/09/22 08:35:40;;;;;;;;;0.00;0.00;;;;;26.34;43.56;99760.28;5091077;27;45412;-74
2023/09/22 08:38:05;;;;;;;;;0.00;0.00;;;;;26.34;43.37;99749.41;5091797;27;45594;-74
2023/09/22 08:40:31;;;;;;;;;0.33;0.33;;;;;26.34;43.06;99754.84;5091093;27;45465;-74
2023/09/22 08:42:57;;;;;;;;;2.00;0.67;;;;;26.26;43.46;99742.31;5085121;27;46493;-73
2023/09/22 08:45:23;;;;;;;;;0.00;0.00;;;;;26.31;43.13;99742.50;5092797;27;45531;-75
2023/09/22 08:47:50;;;;;;;;;1.67;1.67;;;;;26.35;43.13;99754.63;5094121;27;45581;-74
2023/09/22 08:50:17;;;;;;;;;0.00;0.00;;;;;26.34;43.46;99747.53;5086041;27;45505;-75
2023/09/22 08:52:52;;;;;;;;;0.00;0.00;;;;;26.35;43.03;99753.81;5091747;27;45555;-74
2023/09/22 08:55:18;;;;;;;;;2.00;2.00;;;;;26.35;42.77;99743.75;5090757;27;45424;-74
2023/09/22 08:57:45;;;;;;;;;0.00;0.00;;;;;26.34;43.25;99746.69;5088189;27;45308;-74
2023/09/22 09:00:18;;;;;;;;;1.00;0.67;;;;;26.32;42.73;99752.34;5086366;27;45382;-76
2023/09/22 09:02:43;;;;;;;;;1.67;0.00;;;;;26.30;42.89;99746.28;5091119;27;45653;-79
2023/09/22 09:05:22;;;;;;;;;0.67;0.33;;;;;26.32;43.29;99752.34;5087552;27;45739;-76
2023/09/22 09:07:48;;;;;;;;;0.00;0.00;;;;;26.32;42.70;99757.78;5084637;27;45545;-73
2023/09/22 09:10:33;;;;;;;;;0.00;0.00;;;;;26.34;42.71;99757.56;5082107;27;45838;-73
2023/09/22 09:13:03;;;;;;;;;0.00;0.00;;;;;26.34;42.63;99754.84;5078701;27;45520;-73
2023/09/22 09:15:43;;;;;;;;;0.33;0.00;;;;;26.34;42.37;99757.56;5090142;27;45656;-74
2023/09/22 09:18:12;;;;;;;;;0.00;0.00;;;;;26.29;42.45;99745.44;5090256;27;45608;-74
2023/09/22 09:20:41;;;;;;;;;0.33;0.00;;;;;26.37;42.35;99758.00;5082937;27;45574;-74
2023/09/22 09:23:13;;;;;;;;;1.00;1.00;;;;;26.41;42.77;99766.56;5092195;27;46581;-74
2023/09/22 09:25:40;;;;;;;;;1.00;0.00;;;;;26.42;42.67;99760.91;5092078;27;45520;-74
2023/09/22 09:28:06;;;;;;;;;0.00;0.00;;;;;26.47;42.19;99764.88;5091188;27;45456;-74
2023/09/22 09:30:32;;;;;;;;;0.00;0.00;;;;;26.48;42.36;99761.13;5089045;27;45605;-71
2023/09/22 09:33:10;;;;;;;;;0.00;0.00;;;;;26.50;42.32;99772.63;5083802;27;45576;-74
2023/09/22 09:35:39;;;;;;;;;0.00;0.00;;;;;26.50;42.56;99772.63;5087125;27;45456;-71
2023/09/22 09:38:06;;;;;;;;;0.00;0.00;;;;;26.51;42.02;99769.69;5083229;27;45429;-72
2023/09/22 09:40:36;;;;;;;;;1.00;1.00;;;;;26.53;41.68;99786.63;5085606;27;45565;-72
2023/09/22 09:43:05;;;;;;;;;1.33;0.00;;;;;26.53;41.83;99788.53;5089391;27;46108;-73
2023/09/22 09:45:33;;;;;;;;;0.00;0.00;;;;;26.53;42.18;99791.25;5088684;27;45451;-72
2023/09/22 09:47:59;;;;;;;;;2.67;0.00;;;;;26.54;41.62;99792.91;5090560;27;45458;-72
2023/09/22 09:50:25;;;;;;;;;0.00;0.00;;;;;26.56;41.60;99804.41;5080756;27;45586;-73
2023/09/22 09:52:59;;;;;;;;;0.00;0.00;;;;;26.57;42.25;99804.19;5091923;27;45962;-73
2023/09/22 09:55:26;;;;;;;;;0.00;0.00;;;;;26.56;42.12;99805.25;5092070;27;45651;-74
2023/09/22 09:57:53;;;;;;;;;1.00;0.00;;;;;26.56;41.79;99810.69;5088486;27;45608;-74
2023/09/22 10:00:19;;;;;;;;;0.00;0.00;;;;;26.59;41.62;99825.75;5089509;27;45660;-74
2023/09/22 10:02:47;;;;;;;;;0.00;0.00;;;;;26.60;41.65;99832.06;5091660;27;46034;-74
2023/09/22 10:05:17;;;;;;;;;0.33;0.33;;;;;26.61;41.42;99836.44;5078749;27;45643;-75
2023/09/22 10:07:43;;;;;;;;;0.67;0.67;;;;;26.61;40.87;99845.47;5094553;27;45455;-76
2023/09/22 10:10:12;;;;;;;;;0.00;0.00;;;;;26.60;40.78;99841.03;5096719;27;45425;-75
2023/09/22 10:12:38;;;;;;;;;0.00;0.00;;;;;26.62;40.85;99855.28;5085363;27;45657;-74
2023/09/22 10:15:04;;;;;;;;;0.00;0.00;;;;;26.64;40.87;99857.81;5095187;27;45429;-76
2023/09/22 10:17:30;;;;;;;;;0.33;0.00;;;;;26.64;40.55;99865.97;5095142;27;45696;-76
2023/09/22 10:19:57;;;;;;;;;0.00;0.00;;;;;26.65;41.48;99867.63;5096194;27;45651;-75
2023/09/22 10:22:22;;;;;;;;;0.00;0.00;;;;;26.63;41.42;99865.13;5081071;27;46103;-75
2023/09/22 10:25:13;;;;;;;;;0.00;0.00;;;;;26.68;41.44;99876.22;5085773;27;45604;-75
2023/09/22 10:27:55;;;;;;;;;0.00;0.00;;;;;26.68;41.02;99876.22;5094287;27;45564;-75
2023/09/22 10:30:44;;;;;;;;;0.00;0.00;;;;;26.64;41.67;99864.06;5077320;27;45775;-75
2023/09/22 10:33:15;;;;;;;;;1.00;0.67;;;;;26.74;41.86;99881.84;5081327;27;45542;-75
2023/09/22 10:35:40;;;;;;;;;0.00;0.00;;;;;26.76;41.21;99894.19;5086426;27;45652;-75
2023/09/22 10:38:06;;;;;;;;;1.33;0.33;;;;;26.75;41.81;99888.97;5085101;27;45478;-76
2023/09/22 10:40:31;;;;;;;;;1.00;1.00;;;;;26.80;41.59;99897.34;5087954;27;45509;-75
2023/09/22 10:43:02;;;;;;;;;1.00;1.00;;;;;26.81;41.12;99901.75;5089098;27;45453;-75
2023/09/22 10:45:29;;;;;;;;;0.00;0.00;;;;;26.83;41.11;99905.09;5085058;27;45584;-75
2023/09/22 10:47:57;;;;;;;;;0.00;0.00;;;;;26.83;41.67;99914.09;5085073;27;45473;-75
2023/09/22 10:50:26;;;;;;;;;0.00;0.00;;;;;26.84;41.72;99915.78;5085479;27;45798;-75
2023/09/22 10:53:05;;;;;;;;;0.00;0.00;;;;;26.88;41.30;99916.19;5084128;27;47352;-75
2023/09/22 10:55:36;;;;;;;;;0.00;0.00;;;;;26.91;41.44;99931.25;5088867;27;45530;-75
2023/09/22 10:58:14;;;;;;;;;0.00;0.00;;;;;26.93;41.39;99930.03;5086411;27;45669;-76
2023/09/22 11:00:53;;;;;;;;;2.00;0.00;;;;;26.95;41.33;99927.09;5081244;27;45544;-74
2023/09/22 11:03:19;;;;;;;;;2.00;0.33;;;;;26.98;42.00;99936.72;5084832;27;45441;-75
2023/09/22 11:05:55;;;;;;;;;0.00;0.00;;;;;26.99;42.27;99938.41;5085912;27;47136;-74
2023/09/22 11:08:21;;;;;;;;;0.00;0.00;;;;;26.97;42.00;99952.22;5081164;27;45497;-75
2023/09/22 11:10:51;;;;;;;;;0.00;0.00;;;;;27.02;41.22;99959.75;5084673;27;45524;-74
2023/09/22 11:13:18;;;;;;;;;0.00;0.00;;;;;27.01;41.20;99972.53;5080953;27;46427;-74
2023/09/22 11:15:54;;;;;;;;;2.00;0.00;;;;;27.01;41.25;99977.97;5079793;27;46098;-75
2023/09/22 11:18:24;;;;;;;;;1.00;1.00;;;;;27.01;41.48;99975.25;5092657;27;45674;-74
2023/09/22 11:21:09;;;;;;;;;0.00;0.00;;;;;27.01;41.81;99988.88;5084716;27;45483;-73
2023/09/22 11:23:38;;;;;;;;;0.00;0.00;;;;;27.02;41.22;99985.09;5093464;27;46223;-73
2023/09/22 11:26:07;;;;;;;;;0.00;0.00;;;;;27.02;41.61;99984.28;5096230;27;45482;-74
2023/09/22 11:28:33;;;;;;;;;0.67;0.67;;;;;27.00;41.29;99991.81;5094146;27;45459;-74
2023/09/22 11:31:27;;;;;;;;;0.00;0.00;;;;;26.99;40.80;99995.56;5094021;27;45491;-74
2023/09/22 11:34:02;;;;;;;;;0.00;0.00;;;;;26.98;41.34;100002.94;5066973;27;46549;-73
2023/09/22 11:36:27;;;;;;;;;0.00;0.00;;;;;26.96;41.13;100011.31;5085942;27;45673;-72
2023/09/22 11:38:54;;;;;;;;;0.00;0.00;;;;;26.96;40.63;100002.28;5091581;27;45635;-73
2023/09/22 11:41:22;;;;;;;;;0.00;0.00;;;;;26.98;41.71;100008.38;5089198;27;45433;-72
2023/09/22 11:43:49;;;;;;;;;0.00;0.00;;;;;27.01;41.08;100024.28;5092206;27;45445;-72
2023/09/22 11:46:16;;;;;;;;;0.00;0.00;;;;;27.02;41.08;100036.00;5089109;27;45295;-72
2023/09/22 11:49:02;;;;;;;;;0.00;0.00;;;;;26.99;41.02;100036.41;5094454;27;45467;-71
2023/09/22 11:51:51;;;;;;;;;0.33;0.33;;;;;26.98;39.71;100030.16;5090469;27;45817;-72
2023/09/22 11:54:21;;;;;;;;;1.00;0.00;;;;;26.98;40.10;100046.50;5087608;27;45550;-72
2023/09/22 11:56:48;;;;;;;;;0.00;0.00;;;;;26.98;40.18;100049.22;5092930;27;45625;-73
2023/09/22 11:59:19;;;;;;;;;0.00;0.00;;;;;26.98;39.81;100056.53;5092212;27;45494;-73
2023/09/22 12:01:46;;;;;;;;;2.00;0.00;;;;;26.99;40.39;100059.06;5085963;27;45470;-73
2023/09/22 12:04:13;;;;;;;;;0.00;0.00;;;;;27.02;40.76;100060.53;5089017;27;46208;-73
2023/09/22 12:06:40;;;;;;;;;0.00;0.00;;;;;27.02;40.14;100071.41;5083764;27;45533;-72
2023/09/22 12:09:15;;;;;;;;;1.67;0.00;;;;;27.02;40.41;100060.53;5092181;27;45464;-72
2023/09/22 12:11:41;;;;;;;;;0.00;0.00;;;;;27.01;40.10;100061.56;5086118;27;45537;-72
2023/09/22 12:14:07;;;;;;;;;0.00;0.00;;;;;27.01;40.57;100070.56;5093684;27;47106;-72
2023/09/22 12:16:33;;;;;;;;;0.00;0.00;;;;;27.03;40.61;100068.50;5093939;27;45439;-73
2023/09/22 12:18:59;;;;;;;;;0.00;0.00;;;;;27.02;39.92;100072.22;5095605;27;45634;-72
2023/09/22 12:21:29;;;;;;;;;0.00;0.00;;;;;27.03;40.17;100090.28;5087744;27;45558;-72
2023/09/22 12:23:55;;;;;;;;;0.00;0.00;;;;;27.03;40.34;100075.81;5093244;27;46294;-74
2023/09/22 12:26:20;;;;;;;;;0.00;0.00;;;;;27.03;39.23;100083.97;5093320;27;45514;-72
2023/09/22 12:28:46;;;;;;;;;0.00;0.00;;;;;27.05;39.66;100090.88;5094413;27;45449;-72
2023/09/22 12:31:12;;;;;;;;;2.00;0.00;;;;;27.05;39.00;100087.34;5090737;27;45522;-72
2023/09/22 12:33:38;;;;;;;;;0.00;0.00;;;;;27.08;39.01;100098.66;5092895;27;48138;-72
2023/09/22 12:36:04;;;;;;;;;0.00;0.00;;;;;27.10;38.86;100104.72;5094818;27;45554;-73
2023/09/22 12:38:29;;;;;;;;;0.00;0.00;;;;;27.10;38.59;100090.28;5095270;27;45369;-73
2023/09/22 12:40:56;;;;;;;;;0.00;0.00;;;;;27.10;39.10;100110.16;5091751;27;45649;-71
2023/09/22 12:43:23;;;;;;;;;0.00;0.00;;;;;27.09;39.12;100108.50;5082370;27;45999;-72
2023/09/22 12:45:48;;;;;;;;;0.00;0.00;;;;;27.12;38.87;100103.66;5087397;27;45476;-71
2023/09/22 12:48:13;;;;;;;;;0.00;0.00;;;;;27.12;38.91;100117.28;5093912;27;45597;-71
2023/09/22 12:50:39;;;;;;;;;0.00;0.00;;;;;27.10;38.87;100112.88;5094456;27;45489;-72
2023/09/22 12:53:05;;;;;;;;;0.00;0.00;;;;;27.09;38.43;100116.66;5091625;27;47261;-72
2023/09/22 12:55:32;;;;;;;;;0.00;0.00;;;;;27.08;38.75;100114.16;5093904;27;45475;-74
2023/09/22 12:57:58;;;;;;;;;0.00;0.00;;;;;27.10;38.52;100117.53;5091958;27;45497;-73
2023/09/22 13:00:23;;;;;;;;;0.00;0.00;;;;;27.10;38.69;100117.53;5091840;27;45445;-83
2023/09/22 13:02:49;;;;;;;;;1.00;1.00;;;;;27.12;38.10;100123.59;5093767;27;45850;-82
2023/09/22 13:05:14;;;;;;;;;0.33;0.33;;;;;27.10;38.64;100123.78;5085959;27;45496;-83
2023/09/22 13:07:40;;;;;;;;;0.00;0.00;;;;;27.12;37.96;100126.31;5093287;27;45652;-83
2023/09/22 13:10:07;;;;;;;;;0.00;0.00;;;;;27.12;37.91;100136.34;5084208;27;45527;-83
2023/09/22 13:12:36;;;;;;;;;1.33;0.00;;;;;27.12;38.54;100139.94;5087265;27;46361;-80
2023/09/22 13:15:02;;;;;;;;;1.00;0.00;;;;;27.13;37.97;100133.41;5092741;27;45448;-84
2023/09/22 13:17:28;;;;;;;;;0.00;0.00;;;;;27.13;38.67;100140.78;5082089;27;45307;-85
2023/09/22 13:19:54;;;;;;;;;0.00;0.00;;;;;27.12;38.46;100139.06;5094367;27;45411;-83
2023/09/22 13:22:21;;;;;;;;;0.00;0.00;;;;;27.16;37.68;100143.06;5090056;27;45913;-83
2023/09/22 13:24:47;;;;;;;;;1.00;1.00;;;;;27.17;38.38;100161.06;5092339;27;45738;-84
2023/09/22 13:27:12;;;;;;;;;0.00;0.00;;;;;27.18;37.71;100147.25;5093459;27;45459;-83
2023/09/22 13:29:39;;;;;;;;;0.00;0.00;;;;;27.18;37.84;100151.88;5093940;27;45377;-80
2023/09/22 13:32:06;;;;;;;;;0.00;0.00;;;;;27.19;37.66;100154.41;5094205;27;45429;-78
2023/09/22 13:34:33;;;;;;;;;2.00;0.00;;;;;27.21;37.31;100156.91;5093583;27;45828;-82
2023/09/22 13:36:59;;;;;;;;;0.00;0.00;;;;;27.22;37.43;100164.03;5090961;27;45969;-83
2023/09/22 13:39:24;;;;;;;;;0.00;0.00;;;;;27.17;37.37;100161.94;5092277;27;45432;-83
2023/09/22 13:41:50;;;;;;;;;0.00;0.00;;;;;27.19;37.79;100178.06;5087393;27;45685;-79
2023/09/22 13:44:15;;;;;;;;;0.00;0.00;;;;;27.19;37.03;100187.09;5088499;27;45808;-83
2023/09/22 13:46:40;;;;;;;;;0.00;0.00;;;;;27.21;37.60;100178.69;5097055;27;45519;-80
2023/09/22 13:49:06;;;;;;;;;0.00;0.00;;;;;27.21;37.73;100179.53;5094851;27;45485;-82
2023/09/22 13:51:31;;;;;;;;;0.00;0.00;;;;;27.18;37.31;100185.41;5092030;27;45464;-81
2023/09/22 13:53:57;;;;;;;;;0.00;0.00;;;;;27.20;37.16;100190.63;5089164;27;45452;-79
2023/09/22 13:56:24;;;;;;;;;0.00;0.00;;;;;27.22;37.36;100185.84;5096008;27;45452;-78
2023/09/22 13:58:50;;;;;;;;;0.00;0.00;;;;;27.22;36.44;100199.47;5092135;27;45619;-83
2023/09/22 14:01:16;;;;;;;;;1.00;0.00;;;;;27.21;36.97;100198.59;5095894;27;45507;-82
2023/09/22 14:03:42;;;;;;;;;0.00;0.00;;;;;27.21;36.97;100201.34;5093801;27;45386;-80
2023/09/22 14:06:15;;;;;;;;;0.00;0.00;;;;;27.21;37.45;100197.75;5083734;27;45420;-73
2023/09/22 14:08:41;;;;;;;;;0.00;0.00;;;;;27.19;37.24;100208.88;5095203;27;45449;-73
2023/09/22 14:11:09;;;;;;;;;0.00;0.00;;;;;27.18;38.23;100212.63;5089952;27;45938;-73
2023/09/22 14:13:35;;;;;;;;;1.00;0.67;;;;;27.14;37.39;100216.81;5094950;27;45737;-73
2023/09/22 14:16:01;;;;;;;;;0.00;0.00;;;;;27.16;37.24;100206.56;5093209;27;45548;-73
2023/09/22 14:18:26;;;;;;;;;0.00;0.00;;;;;27.16;37.80;100213.88;5092092;27;45804;-73
2023/09/22 14:20:51;;;;;;;;;0.00;0.00;;;;;27.16;37.96;100201.13;5094089;27;46608;-73
2023/09/22 14:23:17;;;;;;;;;0.00;0.00;;;;;27.14;37.88;100222.25;5095490;27;45474;-73
2023/09/22 14:25:45;;;;;;;;;0.33;0.33;;;;;27.14;37.05;100219.53;5096379;27;45670;-73
2023/09/22 14:28:11;;;;;;;;;0.00;0.00;;;;;27.10;37.75;100221.84;5084682;27;45531;-73
2023/09/22 14:30:37;;;;;;;;;0.00;0.00;;;;;27.12;37.22;100229.81;5091304;27;46212;-73
2023/09/22 14:33:03;;;;;;;;;0.00;0.00;;;;;27.09;37.24;100232.94;5088533;27;45496;-73
2023/09/22 14:35:28;;;;;;;;;0.00;0.00;;;;;27.09;36.65;100225.63;5095785;27;45421;-72
2023/09/22 14:37:55;;;;;;;;;0.00;0.00;;;;;27.03;36.89;100223.72;5096392;27;45403;-72
2023/09/22 14:40:21;;;;;;;;;0.00;0.00;;;;;27.09;37.16;100238.38;5095216;27;46264;-73
2023/09/22 14:42:46;;;;;;;;;0.00;0.00;;;;;27.08;37.03;100231.25;5094969;27;45656;-73
2023/09/22 14:45:11;;;;;;;;;1.00;0.00;;;;;27.04;37.23;100233.56;5096535;27;45448;-74
2023/09/22 14:47:37;;;;;;;;;0.67;0.67;;;;;27.06;37.48;100236.91;5090387;27;45617;-73
2023/09/22 14:50:06;;;;;;;;;0.00;0.00;;;;;27.05;36.84;100237.97;5095821;27;45836;-73
2023/09/22 14:52:32;;;;;;;;;0.00;0.00;;;;;27.04;36.97;100232.72;5096242;27;45677;-73
2023/09/22 14:54:58;;;;;;;;;0.00;0.00;;;;;27.03;37.69;100231.03;5087703;27;45472;-76
2023/09/22 14:57:23;;;;;;;;;0.00;0.00;;;;;27.03;36.97;100242.78;5095746;27;45366;-78
2023/09/22 14:59:49;;;;;;;;;2.00;0.33;;;;;27.03;37.73;100237.34;5095321;27;45555;-74
2023/09/22 15:02:14;;;;;;;;;0.33;0.33;;;;;27.06;37.45;100233.38;5090068;27;45567;-76
2023/09/22 15:04:40;;;;;;;;;0.00;0.00;;;;;27.08;37.75;100253.03;5088331;27;45516;-75
2023/09/22 15:07:06;;;;;;;;;0.00;0.00;;;;;27.12;37.74;100243.44;5080994;27;45475;-75
2023/09/22 15:09:32;;;;;;;;;3.67;0.00;;;;;27.15;37.95;100258.53;5092647;27;46035;-73
2023/09/22 15:11:57;;;;;;;;;0.00;0.00;;;;;27.19;38.25;100266.09;5095223;27;45776;-73
2023/09/22 15:14:23;;;;;;;;;0.00;0.00;;;;;27.23;37.99;100269.25;5089929;27;45374;-74
2023/09/22 15:16:48;;;;;;;;;1.00;1.00;;;;;27.27;38.70;100281.41;5075510;27;45618;-72
2023/09/22 15:19:14;;;;;;;;;0.00;0.00;;;;;27.30;38.79;100282.88;5089838;27;45506;-73
2023/09/22 15:21:39;;;;;;;;;0.00;0.00;;;;;27.34;38.83;100289.59;5092687;27;45492;-73
2023/09/22 15:24:06;;;;;;;;;0.00;0.00;;;;;27.36;38.31;100280.19;5095457;27;45413;-73
2023/09/22 15:26:31;;;;;;;;;0.00;0.00;;;;;27.39;38.24;100295.28;5094012;27;45457;-72
2023/09/22 15:28:56;;;;;;;;;0.00;0.00;;;;;27.42;38.71;100291.31;5088322;27;45712;-75
2023/09/22 15:31:22;;;;;;;;;1.67;0.00;;;;;27.46;38.40;100295.28;5095120;27;45446;-72
2023/09/22 15:33:47;;;;;;;;;0.00;0.00;;;;;27.51;38.91;100300.13;5088496;27;45423;-73
2023/09/22 15:36:13;;;;;;;;;0.00;0.00;;;;;27.54;39.14;100308.72;5089170;27;45442;-73
2023/09/22 15:38:39;;;;;;;;;0.00;0.00;;;;;27.56;38.71;100306.63;5091947;27;45599;-73
2023/09/22 15:41:06;;;;;;;;;0.00;0.00;;;;;27.58;38.96;100303.69;5095233;27;45729;-73
2023/09/22 15:43:34;;;;;;;;;0.00;0.00;;;;;27.61;39.09;100316.94;5089778;27;45520;-73
2023/09/22 15:46:00;;;;;;;;;0.00;0.00;;;;;27.62;39.01;100316.72;5086373;27;45532;-73
2023/09/22 15:48:28;;;;;;;;;0.00;0.00;;;;;27.65;38.93;100328.25;5093255;27;46128;-73
2023/09/22 15:50:53;;;;;;;;;0.00;0.00;;;;;27.67;39.34;100326.19;5082187;27;45443;-73
2023/09/22 15:53:21;;;;;;;;;1.00;0.00;;;;;27.67;39.45;100329.72;5092990;27;45401;-76
2023/09/22 15:55:46;;;;;;;;;2.00;1.67;;;;;27.67;38.86;100321.56;5085966;27;45688;-75
2023/09/22 15:58:12;;;;;;;;;1.00;0.00;;;;;27.66;38.45;100332.69;5093163;27;45879;-75
2023/09/22 16:00:41;;;;;;;;;0.00;0.00;;;;;27.60;38.62;100329.75;5092449;27;45449;-75
2023/09/22 16:03:08;;;;;;;;;0.00;0.00;;;;;27.54;39.31;100330.50;5094397;27;45366;-76
2023/09/22 16:05:34;;;;;;;;;0.00;0.00;;;;;27.51;39.61;100341.84;5094955;27;45498;-75
2023/09/22 16:07:59;;;;;;;;;0.00;0.00;;;;;27.41;38.81;100333.19;5090280;27;46430;-75
2023/09/22 16:10:24;;;;;;;;;0.00;0.00;;;;;27.39;39.49;100340.75;5093403;27;45559;-75
2023/09/22 16:12:50;;;;;;;;;0.00;0.00;;;;;27.35;39.11;100338.41;5093113;27;45791;-75
2023/09/22 16:15:15;;;;;;;;;0.00;0.00;;;;;27.29;39.28;100341.13;5095616;27;45365;-76
2023/09/22 16:17:41;;;;;;;;;0.00;0.00;;;;;27.27;39.77;100345.94;5094131;27;46007;-75
2023/09/22 16:20:08;;;;;;;;;0.00;0.00;;;;;27.24;39.23;100347.19;5079713;27;45670;-79
2023/09/22 16:22:34;;;;;;;;;2.00;0.33;;;;;27.20;39.64;100351.34;5090259;27;45657;-76
2023/09/22 16:24:59;;;;;;;;;0.00;0.00;;;;;27.18;39.84;100358.91;5092065;27;45543;-77
2023/09/22 16:27:24;;;;;;;;;0.00;0.00;;;;;27.14;40.02;100358.44;5093626;27;45531;-76
2023/09/22 16:29:50;;;;;;;;;3.33;1.00;;;;;27.12;39.63;100352.38;5092976;27;45421;-78
2023/09/22 16:32:16;;;;;;;;;0.00;0.00;;;;;27.08;40.49;100376.47;5094272;27;45481;-76
2023/09/22 16:34:41;;;;;;;;;1.33;0.00;;;;;27.05;40.30;100376.84;5094659;27;45747;-76
2023/09/22 16:37:07;;;;;;;;;0.00;0.00;;;;;27.00;40.24;100371.16;5093219;27;45406;-77
2023/09/22 16:39:32;;;;;;;;;0.33;0.33;;;;;26.99;39.99;100374.09;5084047;27;45820;-76
2023/09/22 16:41:58;;;;;;;;;1.00;0.00;;;;;26.98;40.47;100380.59;5094402;27;45398;-77
2023/09/22 16:44:24;;;;;;;;;0.00;0.00;;;;;26.95;40.28;100384.56;5095121;27;45488;-75
2023/09/22 16:46:51;;;;;;;;;0.00;0.00;;;;;26.92;40.19;100393.94;5093213;27;46283;-77